Time;durP1;ratioP1;P1;durP2;ratioP2;P2;SDS_P1;SDS_P2;PMS_P1;PMS_P2;Temp;Humidity;BMP_temperature;BMP_pressure;BME280_temperature;BME280_humidity;BME280_pressure;Samples;Min_cycle;Max_cycle;Signal;HPM_P1;HPM_P2
2021/12/18 00:01:46;;;;;;;23.67;14.87;;;7.10;99.90;;;;;;5093418;28;20177;-65
2021/12/18 00:04:12;;;;;;;23.97;14.50;;;7.20;99.90;;;;;;5093280;28;20246;-65
2021/12/18 00:06:38;;;;;;;25.53;16.43;;;7.20;99.90;;;;;;5093369;28;20180;-65
2021/12/18 00:09:05;;;;;;;28.37;15.80;;;7.20;99.90;;;;;;5093357;28;20259;-66
2021/12/18 00:11:30;;;;;;;24.70;14.97;;;7.20;99.90;;;;;;5093820;28;20583;-64
2021/12/18 00:13:56;;;;;;;27.33;15.43;;;7.20;99.90;;;;;;5093558;28;20216;-65
2021/12/18 00:16:22;;;;;;;26.13;16.37;;;7.20;99.90;;;;;;5092870;28;20185;-65
2021/12/18 00:18:51;;;;;;;23.90;15.93;;;7.20;99.90;;;;;;5092900;28;20166;-65
2021/12/18 00:21:18;;;;;;;29.57;16.23;;;7.10;99.90;;;;;;5092824;28;20177;-65
2021/12/18 00:23:44;;;;;;;26.23;15.43;;;7.10;99.90;;;;;;5093005;28;20196;-65
2021/12/18 00:26:11;;;;;;;24.83;15.50;;;7.10;99.90;;;;;;5092711;28;20233;-65
2021/12/18 00:28:36;;;;;;;26.33;15.23;;;7.10;99.90;;;;;;5092971;28;20223;-65
2021/12/18 00:31:03;;;;;;;30.20;16.87;;;7.10;99.90;;;;;;5091453;28;20181;-65
2021/12/18 00:33:28;;;;;;;29.77;15.83;;;7.10;99.90;;;;;;5091312;28;20633;-66
2021/12/18 00:35:54;;;;;;;24.57;14.97;;;7.10;99.90;;;;;;5092730;28;20185;-65
2021/12/18 00:38:28;;;;;;;26.33;15.40;;;7.10;99.90;;;;;;5093099;28;20354;-65
2021/12/18 00:43:34;;;;;;;26.23;14.30;;;7.10;99.90;;;;;;5092865;28;20164;-66
2021/12/18 00:46:00;;;;;;;25.70;14.53;;;7.20;99.90;;;;;;5092627;28;20166;-65
2021/12/18 00:48:26;;;;;;;27.93;15.17;;;7.20;99.90;;;;;;5092593;28;20173;-66
2021/12/18 00:50:53;;;;;;;26.63;15.27;;;7.20;99.90;;;;;;5092565;28;20180;-65
2021/12/18 00:53:19;;;;;;;25.57;14.23;;;7.10;99.90;;;;;;5091230;28;20711;-65
2021/12/18 00:55:45;;;;;;;32.17;16.13;;;7.20;99.90;;;;;;5095414;28;20224;-64
2021/12/18 00:58:11;;;;;;;29.77;16.17;;;7.10;99.90;;;;;;5096682;28;20196;-64
2021/12/18 01:00:40;;;;;;;28.90;15.90;;;7.10;99.90;;;;;;5096685;28;20199;-64
2021/12/18 01:03:14;;;;;;;27.30;14.83;;;7.10;99.90;;;;;;5096273;28;20192;-64
2021/12/18 01:05:40;;;;;;;25.20;14.93;;;7.10;99.90;;;;;;5096711;28;20271;-65
2021/12/18 01:08:06;;;;;;;29.83;16.47;;;7.10;99.90;;;;;;5097832;28;20208;-65
2021/12/18 01:13:00;;;;;;;29.13;14.93;;;7.10;99.90;;;;;;5101517;28;20301;-65
2021/12/18 01:15:36;;;;;;;36.93;16.30;;;7.10;99.90;;;;;;5100916;28;20192;-65
2021/12/18 01:23:33;;;;;;;34.03;17.53;;;7.00;99.90;;;;;;5095795;28;20180;-65
2021/12/18 01:25:59;;;;;;;36.80;17.83;;;7.00;99.90;;;;;;5095697;28;20187;-65
2021/12/18 01:28:25;;;;;;;28.67;15.93;;;7.00;99.90;;;;;;5095963;28;20197;-65
2021/12/18 01:30:52;;;;;;;36.00;17.50;;;7.00;99.90;;;;;;5095675;28;20181;-65
2021/12/18 01:33:17;;;;;;;30.40;17.00;;;6.90;99.90;;;;;;5095592;28;20169;-65
2021/12/18 01:35:43;;;;;;;30.83;17.93;;;6.90;99.90;;;;;;5094157;28;20291;-65
2021/12/18 01:38:10;;;;;;;36.70;17.67;;;6.80;99.90;;;;;;5094246;28;20287;-65
2021/12/18 01:40:36;;;;;;;35.33;17.33;;;6.80;99.90;;;;;;5095620;28;20165;-64
2021/12/18 01:46:07;;;;;;;41.80;18.43;;;6.80;99.90;;;;;;5095589;28;20197;-65
2021/12/18 01:53:49;;;;;;;31.87;16.77;;;6.70;99.90;;;;;;5095085;28;20195;-64
2021/12/18 01:56:16;;;;;;;33.93;17.27;;;6.70;99.90;;;;;;5095024;28;20173;-65
2021/12/18 01:58:44;;;;;;;31.50;17.43;;;6.70;99.90;;;;;;5095102;28;20180;-64
2021/12/18 02:01:11;;;;;;;38.13;18.47;;;6.70;99.90;;;;;;5095194;28;20165;-65
2021/12/18 02:03:37;;;;;;;42.57;18.10;;;6.70;99.90;;;;;;5095154;28;20173;-65
2021/12/18 02:06:03;;;;;;;40.87;18.30;;;6.70;99.90;;;;;;5094148;28;20176;-65
2021/12/18 02:08:30;;;;;;;39.67;19.23;;;6.70;99.90;;;;;;5095318;28;20182;-65
2021/12/18 02:11:08;;;;;;;41.23;19.20;;;6.60;99.90;;;;;;5094794;28;20641;-65
2021/12/18 02:21:32;;;;;;;42.27;18.33;;;6.70;99.90;;;;;;5094674;28;20295;-64
2021/12/18 02:23:59;;;;;;;40.47;18.57;;;6.70;99.90;;;;;;5094455;28;20189;-64
2021/12/18 02:26:25;;;;;;;39.77;18.57;;;6.70;99.90;;;;;;5094537;28;20173;-64
2021/12/18 02:28:53;;;;;;;37.57;19.50;;;6.70;99.90;;;;;;5093131;28;20656;-64
2021/12/18 02:31:19;;;;;;;45.67;20.37;;;6.80;99.90;;;;;;5093173;28;20203;-65
2021/12/18 02:33:46;;;;;;;40.90;19.17;;;6.80;99.90;;;;;;5094408;28;20203;-65
2021/12/18 02:36:20;;;;;;;37.47;17.80;;;6.80;99.90;;;;;;5094438;28;20207;-65
2021/12/18 02:43:50;;;;;;;39.47;18.43;;;6.80;99.90;;;;;;5094422;28;20184;-65
2021/12/18 02:46:20;;;;;;;46.67;19.47;;;6.80;99.90;;;;;;5094147;28;20204;-65
2021/12/18 02:48:47;;;;;;;42.17;19.53;;;6.90;99.90;;;;;;5094112;28;20176;-65
2021/12/18 02:51:15;;;;;;;38.43;18.10;;;6.80;99.90;;;;;;5092647;28;20196;-65
2021/12/18 02:53:46;;;;;;;46.93;19.13;;;6.80;99.90;;;;;;5093932;28;20556;-65
2021/12/18 02:56:14;;;;;;;50.47;19.90;;;6.80;99.90;;;;;;5093961;28;20181;-65
2021/12/18 02:58:45;;;;;;;43.23;19.80;;;6.80;99.90;;;;;;5093855;28;20169;-65
2021/12/18 03:01:16;;;;;;;45.93;19.27;;;6.80;99.90;;;;;;5094249;28;20184;-65
2021/12/18 03:03:43;;;;;;;48.27;20.03;;;6.80;99.90;;;;;;5094330;28;20150;-65
2021/12/18 03:24:59;;;;;;;45.07;20.07;;;6.80;99.90;;;;;;5093478;28;20185;-65
2021/12/18 03:27:25;;;;;;;52.17;19.83;;;6.80;99.90;;;;;;5093435;28;20512;-65
2021/12/18 03:29:51;;;;;;;44.27;19.93;;;6.70;99.90;;;;;;5093538;28;20169;-65
2021/12/18 03:32:18;;;;;;;43.70;18.37;;;6.70;99.90;;;;;;5093412;28;20174;-65
2021/12/18 03:34:43;;;;;;;42.00;19.93;;;6.70;99.90;;;;;;5093399;28;20654;-65
2021/12/18 03:37:09;;;;;;;41.07;20.40;;;6.70;99.90;;;;;;5093580;28;20207;-65
2021/12/18 03:39:36;;;;;;;47.57;20.17;;;6.70;99.90;;;;;;5093412;28;20170;-65
2021/12/18 03:42:04;;;;;;;50.47;21.73;;;6.70;99.90;;;;;;5093618;28;20205;-65
2021/12/18 03:44:30;;;;;;;49.33;20.80;;;6.70;99.90;;;;;;5093353;28;20189;-65
2021/12/18 03:46:56;;;;;;;41.03;19.63;;;6.70;99.90;;;;;;5093783;28;20177;-65
2021/12/18 03:49:22;;;;;;;46.20;19.17;;;6.70;99.90;;;;;;5093395;28;20252;-65
2021/12/18 03:51:48;;;;;;;47.50;19.40;;;6.80;99.90;;;;;;5093299;28;20570;-66
2021/12/18 03:54:14;;;;;;;41.90;19.07;;;6.80;99.90;;;;;;5093365;28;20201;-65
2021/12/18 03:56:39;;;;;;;45.33;19.23;;;6.80;99.90;;;;;;5093203;28;20188;-65
2021/12/18 03:59:05;;;;;;;42.40;18.37;;;6.80;99.90;;;;;;5091775;28;20203;-65
2021/12/18 04:01:31;;;;;;;48.83;21.50;;;6.80;99.90;;;;;;5093083;28;20252;-65
2021/12/18 04:03:57;;;;;;;42.67;18.00;;;6.90;99.90;;;;;;5092994;28;20374;-65
2021/12/18 04:06:23;;;;;;;52.07;21.63;;;6.80;99.90;;;;;;5091693;28;20201;-65
2021/12/18 04:08:49;;;;;;;47.37;19.50;;;6.90;99.90;;;;;;5092937;28;20604;-65
2021/12/18 04:11:14;;;;;;;45.03;20.63;;;6.80;99.90;;;;;;5092955;28;20174;-65
2021/12/18 04:13:44;;;;;;;44.73;20.53;;;6.80;99.90;;;;;;5091589;28;20179;-65
2021/12/18 04:16:11;;;;;;;43.10;20.40;;;6.80;99.90;;;;;;5093487;28;20192;-65
2021/12/18 04:18:37;;;;;;;42.33;17.57;;;6.80;99.90;;;;;;5093087;28;20292;-65
2021/12/18 04:21:03;;;;;;;44.17;19.50;;;6.90;99.90;;;;;;5092931;28;20200;-65
2021/12/18 04:23:28;;;;;;;38.73;17.67;;;6.80;99.90;;;;;;5093143;28;20574;-65
2021/12/18 04:25:57;;;;;;;50.40;18.70;;;6.80;99.90;;;;;;5093056;28;20653;-65
2021/12/18 04:28:24;;;;;;;46.40;19.73;;;6.80;99.90;;;;;;5093033;28;20177;-65
2021/12/18 04:30:50;;;;;;;45.17;18.93;;;6.80;99.90;;;;;;5094648;28;20519;-65
2021/12/18 04:33:17;;;;;;;48.77;18.73;;;6.80;99.90;;;;;;5096989;28;20169;-64
2021/12/18 04:35:43;;;;;;;42.53;18.63;;;6.80;99.90;;;;;;5096636;28;20193;-65
2021/12/18 04:38:09;;;;;;;41.70;17.53;;;6.80;99.90;;;;;;5096535;28;20197;-65
2021/12/18 04:40:35;;;;;;;39.27;17.63;;;6.80;99.90;;;;;;5096637;28;20160;-65
2021/12/18 04:43:03;;;;;;;37.83;15.70;;;6.80;99.90;;;;;;5095264;28;20181;-65
2021/12/18 04:45:30;;;;;;;37.37;16.57;;;6.80;99.90;;;;;;5096565;28;20553;-65
2021/12/18 04:47:57;;;;;;;41.03;17.50;;;6.80;99.90;;;;;;5096375;28;20177;-65
2021/12/18 04:50:24;;;;;;;40.57;16.63;;;6.80;99.90;;;;;;5096579;28;20653;-64
2021/12/18 04:52:51;;;;;;;31.33;15.93;;;6.80;99.90;;;;;;5096500;28;20570;-65
2021/12/18 04:55:17;;;;;;;31.13;15.70;;;6.80;99.90;;;;;;5096224;28;20200;-65
2021/12/18 04:57:43;;;;;;;35.97;16.30;;;6.80;99.90;;;;;;5096732;28;20200;-65
2021/12/18 05:00:14;;;;;;;39.23;17.30;;;6.80;99.90;;;;;;5094935;28;20261;-65
2021/12/18 05:02:41;;;;;;;38.13;16.80;;;6.70;99.90;;;;;;5096726;28;20256;-65
2021/12/18 05:05:08;;;;;;;38.17;16.50;;;6.70;99.90;;;;;;5095963;28;20249;-65
2021/12/18 05:07:35;;;;;;;31.67;14.63;;;6.70;99.90;;;;;;5096597;28;20191;-65
2021/12/18 05:10:00;;;;;;;30.20;13.97;;;6.70;99.90;;;;;;5094657;28;20229;-65
2021/12/18 05:12:26;;;;;;;32.60;14.03;;;6.80;99.90;;;;;;5095842;28;20177;-65
2021/12/18 05:14:52;;;;;;;36.93;14.90;;;6.70;99.90;;;;;;5095815;28;20197;-65
2021/12/18 05:17:18;;;;;;;32.93;14.30;;;6.70;99.90;;;;;;5095710;28;20197;-64
2021/12/18 05:19:45;;;;;;;40.67;16.10;;;6.70;99.90;;;;;;5096089;28;20216;-64
2021/12/18 05:22:10;;;;;;;31.90;15.20;;;6.70;99.90;;;;;;5095945;28;20239;-65
2021/12/18 05:24:36;;;;;;;29.93;14.03;;;6.80;99.90;;;;;;5095734;28;20193;-65
2021/12/18 05:27:02;;;;;;;32.57;15.07;;;6.80;99.90;;;;;;5095604;28;20181;-65
2021/12/18 05:29:28;;;;;;;34.13;17.23;;;6.80;99.90;;;;;;5095544;28;20706;-64
2021/12/18 05:31:54;;;;;;;36.07;16.53;;;6.80;99.90;;;;;;5095587;28;20180;-64
2021/12/18 05:34:25;;;;;;;40.47;16.83;;;6.70;99.90;;;;;;5095332;28;20669;-65
2021/12/18 05:39:24;;;;;;;37.27;15.97;;;6.60;99.90;;;;;;5095483;28;20231;-64
2021/12/18 05:41:51;;;;;;;40.17;16.50;;;6.70;99.90;;;;;;5095327;28;20165;-65
2021/12/18 05:44:18;;;;;;;44.93;16.73;;;6.70;99.90;;;;;;5095187;28;20549;-65
2021/12/18 05:46:46;;;;;;;42.83;17.10;;;6.60;99.90;;;;;;5095224;28;20261;-65
2021/12/18 05:49:12;;;;;;;39.27;18.53;;;6.60;99.90;;;;;;5095737;28;20516;-64
2021/12/18 05:51:38;;;;;;;39.10;17.63;;;6.60;99.90;;;;;;5095197;28;20184;-65
2021/12/18 05:54:05;;;;;;;42.63;17.43;;;6.60;99.90;;;;;;5094935;28;20211;-65
2021/12/18 05:56:31;;;;;;;45.60;17.57;;;6.60;99.90;;;;;;5093637;28;20264;-64
2021/12/18 05:58:58;;;;;;;43.97;16.80;;;6.60;99.90;;;;;;5093971;28;20169;-65
2021/12/18 06:01:25;;;;;;;36.07;16.60;;;6.70;99.90;;;;;;5094917;28;20170;-65
2021/12/18 06:03:51;;;;;;;37.20;15.93;;;6.70;99.90;;;;;;5094766;28;20200;-64
2021/12/18 06:06:17;;;;;;;31.70;14.03;;;6.60;99.90;;;;;;5094905;28;20640;-65
2021/12/18 06:08:43;;;;;;;33.60;15.43;;;6.70;99.90;;;;;;5094736;28;20174;-64
2021/12/18 06:11:17;;;;;;;35.47;14.83;;;6.70;99.90;;;;;;5094977;28;20180;-65
2021/12/18 06:13:50;;;;;;;34.00;14.77;;;6.70;99.90;;;;;;5094743;28;20523;-65
2021/12/18 06:16:17;;;;;;;42.13;16.63;;;6.70;99.90;;;;;;5095132;28;20165;-64
2021/12/18 06:18:44;;;;;;;35.23;15.13;;;6.70;99.90;;;;;;5093647;28;20208;-64
2021/12/18 06:21:15;;;;;;;36.43;15.37;;;6.70;99.90;;;;;;5094949;28;20196;-64
2021/12/18 06:23:46;;;;;;;37.27;16.13;;;6.70;99.90;;;;;;5094952;28;20207;-65
2021/12/18 06:26:13;;;;;;;39.13;14.93;;;6.70;99.90;;;;;;5093644;28;20166;-64
2021/12/18 06:28:39;;;;;;;32.50;15.00;;;6.70;99.90;;;;;;5095106;28;20201;-64
2021/12/18 06:31:05;;;;;;;33.60;14.73;;;6.60;99.90;;;;;;5094732;28;20282;-64
2021/12/18 06:33:32;;;;;;;38.53;15.83;;;6.60;99.90;;;;;;5094637;28;20168;-65
2021/12/18 06:35:58;;;;;;;39.20;15.00;;;6.60;99.90;;;;;;5095204;28;20208;-65
2021/12/18 06:38:24;;;;;;;34.90;14.20;;;6.60;99.90;;;;;;5093750;28;20204;-65
2021/12/18 06:40:50;;;;;;;30.53;14.17;;;6.60;99.90;;;;;;5094806;28;20699;-64
2021/12/18 06:43:16;;;;;;;34.97;15.07;;;6.60;99.90;;;;;;5093263;28;20169;-64
2021/12/18 06:45:42;;;;;;;35.43;14.37;;;6.60;99.90;;;;;;5094385;28;20189;-64
2021/12/18 06:48:08;;;;;;;39.67;15.70;;;6.60;99.90;;;;;;5094485;28;20541;-64
2021/12/18 06:50:34;;;;;;;39.37;15.87;;;6.70;99.90;;;;;;5094918;28;20212;-64
2021/12/18 06:53:00;;;;;;;34.77;14.93;;;6.60;99.90;;;;;;5093610;28;20215;-65
2021/12/18 06:55:26;;;;;;;42.90;14.63;;;6.60;99.90;;;;;;5094254;28;20196;-64
2021/12/18 06:57:52;;;;;;;36.63;16.03;;;6.60;99.90;;;;;;5094503;28;20196;-64
2021/12/18 07:00:20;;;;;;;35.53;14.23;;;6.60;99.90;;;;;;5094784;28;20180;-65
2021/12/18 07:02:46;;;;;;;39.43;15.83;;;6.60;99.90;;;;;;5094394;28;20179;-64
2021/12/18 07:05:12;;;;;;;31.27;15.00;;;6.60;99.90;;;;;;5093008;28;20188;-65
2021/12/18 07:07:38;;;;;;;31.20;13.57;;;6.60;99.90;;;;;;5094378;28;20181;-65
2021/12/18 07:10:06;;;;;;;33.93;13.53;;;6.60;99.90;;;;;;5093026;28;20298;-64
2021/12/18 07:12:32;;;;;;;36.83;15.13;;;6.60;99.90;;;;;;5094341;28;20177;-64
2021/12/18 07:14:58;;;;;;;32.73;13.80;;;6.60;99.90;;;;;;5092673;28;20207;-64
2021/12/18 07:17:23;;;;;;;32.20;13.37;;;6.60;99.90;;;;;;5094000;28;20221;-64
2021/12/18 07:19:49;;;;;;;30.43;13.53;;;6.60;99.90;;;;;;5093941;28;20256;-65
2021/12/18 07:22:15;;;;;;;33.93;13.87;;;6.60;99.90;;;;;;5094447;28;20207;-64
2021/12/18 07:24:41;;;;;;;32.60;13.67;;;6.60;99.90;;;;;;5092438;28;20197;-64
2021/12/18 07:27:06;;;;;;;30.63;12.93;;;6.60;99.90;;;;;;5092529;28;20169;-64
2021/12/18 07:29:33;;;;;;;33.53;13.20;;;6.60;99.90;;;;;;5093788;28;20174;-64
2021/12/18 07:31:59;;;;;;;27.10;11.87;;;6.60;99.90;;;;;;5092493;28;20177;-64
2021/12/18 07:34:25;;;;;;;29.00;13.40;;;6.60;99.90;;;;;;5093586;28;20568;-65
2021/12/18 07:36:51;;;;;;;30.83;13.10;;;6.60;99.90;;;;;;5093904;28;20223;-64
2021/12/18 07:39:17;;;;;;;35.80;13.97;;;6.60;99.90;;;;;;5092664;28;20173;-64
2021/12/18 07:41:43;;;;;;;29.80;13.67;;;6.60;99.90;;;;;;5093480;28;20168;-64
2021/12/18 07:44:09;;;;;;;26.63;11.87;;;6.60;99.90;;;;;;5092213;28;20280;-65
2021/12/18 07:46:36;;;;;;;23.77;12.57;;;6.60;99.90;;;;;;5092375;28;20208;-64
2021/12/18 07:49:03;;;;;;;32.57;12.47;;;6.60;99.90;;;;;;5093770;28;20165;-64
2021/12/18 07:51:29;;;;;;;37.20;12.70;;;6.60;99.90;;;;;;5093682;28;20176;-64
2021/12/18 07:53:55;;;;;;;32.97;13.07;;;6.60;99.90;;;;;;5093295;28;20590;-65
2021/12/18 07:56:21;;;;;;;31.60;12.43;;;6.60;99.90;;;;;;5093421;28;20193;-64
2021/12/18 07:58:47;;;;;;;33.03;13.40;;;6.60;99.90;;;;;;5092058;28;20243;-64
2021/12/18 08:01:13;;;;;;;37.07;14.07;;;6.60;99.90;;;;;;5092098;28;20177;-65
2021/12/18 08:03:40;;;;;;;30.00;13.33;;;6.60;99.90;;;;;;5093214;28;20200;-65
2021/12/18 08:06:06;;;;;;;34.83;13.33;;;6.60;99.90;;;;;;5097386;28;20169;-64
2021/12/18 08:08:32;;;;;;;35.47;14.97;;;6.60;99.90;;;;;;5096262;28;20209;-64
2021/12/18 08:10:58;;;;;;;35.47;13.20;;;6.60;99.90;;;;;;5097438;28;20672;-65
2021/12/18 08:13:23;;;;;;;33.13;13.97;;;6.60;99.90;;;;;;5097600;28;20200;-65
2021/12/18 08:15:49;;;;;;;31.33;13.57;;;6.60;99.90;;;;;;5097311;28;20203;-64
2021/12/18 08:18:15;;;;;;;31.43;12.73;;;6.60;99.90;;;;;;5096204;28;20236;-64
2021/12/18 08:20:41;;;;;;;32.80;13.87;;;6.60;99.90;;;;;;5096108;28;20169;-64
2021/12/18 08:23:07;;;;;;;28.50;13.17;;;6.70;99.90;;;;;;5097233;28;20165;-64
2021/12/18 08:25:33;;;;;;;25.37;11.17;;;6.70;99.90;;;;;;5097567;28;20650;-64
2021/12/18 08:28:00;;;;;;;23.87;11.73;;;6.70;99.90;;;;;;5097894;28;20188;-64
2021/12/18 08:30:32;;;;;;;25.07;10.90;;;6.70;99.90;;;;;;5095880;28;20191;-64
2021/12/18 08:32:58;;;;;;;28.73;11.13;;;6.70;99.90;;;;;;5097299;28;20215;-65
2021/12/18 08:35:25;;;;;;;26.47;12.30;;;6.70;99.90;;;;;;5097224;28;20567;-64
2021/12/18 08:37:52;;;;;;;27.10;12.03;;;6.70;99.90;;;;;;5095583;28;20239;-65
2021/12/18 08:40:19;;;;;;;25.57;11.37;;;6.70;99.90;;;;;;5095623;28;20264;-64
2021/12/18 08:42:45;;;;;;;26.33;10.83;;;6.70;99.90;;;;;;5096882;28;20177;-65
2021/12/18 08:45:11;;;;;;;25.67;11.13;;;6.70;99.90;;;;;;5097311;28;20197;-68
2021/12/18 08:47:38;;;;;;;30.63;11.80;;;6.70;99.90;;;;;;5096738;28;20169;-64
2021/12/18 08:50:07;;;;;;;26.83;11.07;;;6.80;99.90;;;;;;5096729;28;20192;-64
2021/12/18 08:52:33;;;;;;;30.57;11.40;;;6.70;99.90;;;;;;5096712;28;20559;-64
2021/12/18 08:55:03;;;;;;;24.93;10.73;;;6.70;99.90;;;;;;5096833;28;20197;-64
2021/12/18 08:57:28;;;;;;;18.33;9.47;;;6.70;99.90;;;;;;5095370;28;20248;-64
2021/12/18 08:59:54;;;;;;;24.17;10.63;;;6.70;99.90;;;;;;5096567;28;20168;-64
2021/12/18 09:02:20;;;;;;;16.67;9.77;;;6.70;99.90;;;;;;5096768;28;20173;-64
2021/12/18 09:04:48;;;;;;;19.33;10.10;;;6.80;99.90;;;;;;5096888;28;20196;-64
2021/12/18 09:07:13;;;;;;;23.27;11.23;;;6.80;99.90;;;;;;5095106;28;20211;-65
2021/12/18 09:09:39;;;;;;;20.40;10.37;;;6.80;99.90;;;;;;5096688;28;20208;-64
2021/12/18 09:12:07;;;;;;;27.20;11.73;;;6.80;99.90;;;;;;5096266;28;20166;-64
2021/12/18 09:14:33;;;;;;;26.03;11.03;;;6.80;99.90;;;;;;5096200;28;20271;-64
2021/12/18 09:16:59;;;;;;;25.77;11.80;;;6.80;99.90;;;;;;5094275;28;20366;-64
2021/12/18 09:19:24;;;;;;;21.97;11.17;;;6.80;99.90;;;;;;5094913;28;20189;-64
2021/12/18 09:21:50;;;;;;;27.90;10.67;;;6.80;99.90;;;;;;5094857;28;20264;-64
2021/12/18 09:24:17;;;;;;;28.13;11.53;;;6.80;99.90;;;;;;5096045;28;20274;-64
2021/12/18 09:26:43;;;;;;;25.70;12.03;;;6.90;99.90;;;;;;5096364;28;20158;-64
2021/12/18 09:29:08;;;;;;;22.17;11.07;;;6.90;99.90;;;;;;5096553;28;20153;-64
2021/12/18 09:31:34;;;;;;;27.63;12.00;;;6.90;99.90;;;;;;5096241;28;20149;-64
2021/12/18 09:34:00;;;;;;;23.00;11.10;;;6.90;99.90;;;;;;5096150;28;20189;-64
2021/12/18 09:36:27;;;;;;;22.33;10.57;;;6.90;99.90;;;;;;5096084;28;20183;-64
2021/12/18 09:38:52;;;;;;;22.03;11.60;;;7.00;99.90;;;;;;5095698;28;20242;-64
2021/12/18 09:41:18;;;;;;;24.13;11.23;;;7.00;99.90;;;;;;5096322;28;20621;-64
2021/12/18 09:43:44;;;;;;;24.97;10.87;;;7.00;99.90;;;;;;5095660;28;20153;-65
2021/12/18 09:46:13;;;;;;;28.43;12.67;;;7.00;99.90;;;;;;5095629;28;20175;-64
2021/12/18 09:48:41;;;;;;;21.40;11.47;;;7.00;99.90;;;;;;5094307;28;20634;-65
2021/12/18 09:51:13;;;;;;;28.93;12.87;;;7.00;99.90;;;;;;5094157;28;20173;-67
2021/12/18 09:53:40;;;;;;;26.73;12.10;;;7.00;99.90;;;;;;5094025;28;20544;-65
2021/12/18 09:56:07;;;;;;;24.40;11.57;;;7.00;99.90;;;;;;5095419;28;20577;-65
2021/12/18 09:58:33;;;;;;;29.97;12.20;;;7.00;99.90;;;;;;5093875;28;20205;-65
2021/12/18 10:00:59;;;;;;;18.27;10.20;;;7.00;99.90;;;;;;5095791;28;20636;-65
2021/12/18 10:03:50;;;;;;;27.73;12.33;;;7.10;99.90;;;;;;5095692;28;20181;-66
2021/12/18 10:06:40;;;;;;;26.47;13.00;;;7.10;99.90;;;;;;5095255;28;20154;-66
2021/12/18 10:09:08;;;;;;;23.97;11.37;;;7.10;99.90;;;;;;5095494;28;20514;-66
2021/12/18 10:11:57;;;;;;;22.13;10.40;;;7.10;99.90;;;;;;5095102;28;20201;-66
2021/12/18 10:14:52;;;;;;;27.03;12.40;;;7.10;99.90;;;;;;5093836;28;20196;-67
2021/12/18 10:17:20;;;;;;;27.93;11.77;;;7.10;99.90;;;;;;5093788;28;20224;-67
2021/12/18 10:19:47;;;;;;;26.03;10.70;;;7.10;99.90;;;;;;5094940;28;20166;-67
2021/12/18 10:22:13;;;;;;;23.13;11.00;;;7.10;99.90;;;;;;5093687;28;20207;-67
2021/12/18 10:24:42;;;;;;;27.00;11.53;;;7.20;99.90;;;;;;5094774;28;20611;-67
2021/12/18 10:27:23;;;;;;;28.57;11.77;;;7.20;99.90;;;;;;5093885;28;20169;-67
2021/12/18 10:29:51;;;;;;;28.17;12.90;;;7.20;99.90;;;;;;5093574;28;20200;-67
2021/12/18 10:32:19;;;;;;;27.87;12.10;;;7.20;99.90;;;;;;5093459;28;20212;-67
2021/12/18 10:34:54;;;;;;;22.67;11.23;;;7.20;99.90;;;;;;5094603;28;20200;-67
2021/12/18 10:37:30;;;;;;;24.80;12.07;;;7.20;99.90;;;;;;5093247;28;20625;-66
2021/12/18 10:39:59;;;;;;;28.37;11.90;;;7.20;99.90;;;;;;5095720;28;20522;-66
2021/12/18 10:42:29;;;;;;;31.73;12.33;;;7.30;99.90;;;;;;5093820;28;20173;-66
2021/12/18 10:45:08;;;;;;;26.63;11.70;;;7.20;99.90;;;;;;5093799;28;20197;-66
2021/12/18 10:48:05;;;;;;;19.87;10.73;;;7.30;99.90;;;;;;5093201;28;20169;-64
2021/12/18 10:50:41;;;;;;;28.60;13.63;;;7.30;99.90;;;;;;5094297;28;20179;-64
2021/12/18 10:53:16;;;;;;;32.53;13.30;;;7.30;99.90;;;;;;5076374;28;20200;-65
2021/12/18 10:55:53;;;;;;;35.40;14.10;;;7.30;99.90;;;;;;5093231;28;20196;-64
2021/12/18 10:58:27;;;;;;;32.13;11.43;;;7.20;99.90;;;;;;5094217;28;20678;-65
2021/12/18 11:01:05;;;;;;;30.67;13.17;;;7.30;99.90;;;;;;5094822;28;20561;-67
2021/12/18 11:03:34;;;;;;;26.43;12.67;;;7.30;99.90;;;;;;5094608;28;20210;-68
2021/12/18 11:06:07;;;;;;;29.20;14.00;;;7.30;99.90;;;;;;5094116;28;20630;-68
2021/12/18 11:08:48;;;;;;;32.47;13.37;;;7.40;99.90;;;;;;5094167;28;20165;-67
2021/12/18 11:13:58;;;;;;;30.63;14.67;;;7.40;99.90;;;;;;5094215;28;20204;-67
2021/12/18 11:16:25;;;;;;;26.73;12.90;;;7.30;99.90;;;;;;5093912;28;20173;-67
2021/12/18 11:18:53;;;;;;;36.70;15.27;;;7.30;99.90;;;;;;5094077;28;20193;-67
2021/12/18 11:21:22;;;;;;;38.13;14.80;;;7.30;99.90;;;;;;5094463;28;20267;-67
2021/12/18 11:24:04;;;;;;;39.43;17.43;;;7.30;99.90;;;;;;5092456;28;20184;-67
2021/12/18 11:26:52;;;;;;;37.33;15.67;;;7.30;99.90;;;;;;5094117;28;20161;-68
2021/12/18 11:29:35;;;;;;;37.23;17.00;;;7.20;99.90;;;;;;5092001;28;20646;-67
2021/12/18 11:32:01;;;;;;;40.87;15.10;;;7.30;99.90;;;;;;5094043;28;20207;-68
2021/12/18 11:34:27;;;;;;;35.77;16.53;;;7.30;99.90;;;;;;5093631;28;20185;-67
2021/12/18 11:36:54;;;;;;;35.13;14.97;;;7.30;99.90;;;;;;5093843;28;20226;-67
2021/12/18 11:39:24;;;;;;;35.37;14.93;;;7.30;99.90;;;;;;5093633;28;20189;-67
2021/12/18 11:41:52;;;;;;;32.37;14.70;;;7.30;99.90;;;;;;5093526;28;20169;-67
2021/12/18 11:44:29;;;;;;;35.60;15.60;;;7.40;99.90;;;;;;5093470;28;20189;-67
2021/12/18 11:46:55;;;;;;;33.67;15.70;;;7.40;99.90;;;;;;5093886;28;20572;-68
2021/12/18 11:49:22;;;;;;;27.67;13.60;;;7.40;99.90;;;;;;5093531;28;20214;-67
2021/12/18 11:52:04;;;;;;;32.27;14.13;;;7.40;99.90;;;;;;5092114;28;20645;-68
2021/12/18 11:54:48;;;;;;;36.27;15.37;;;7.40;99.90;;;;;;5092158;28;20571;-67
2021/12/18 11:57:45;;;;;;;34.27;15.90;;;7.40;99.90;;;;;;5092170;28;20340;-67
2021/12/18 12:00:10;;;;;;;35.93;15.70;;;7.40;99.90;;;;;;5093369;28;20176;-67
2021/12/18 12:03:04;;;;;;;35.00;14.43;;;7.30;99.90;;;;;;5093370;28;20252;-67
2021/12/18 12:05:48;;;;;;;28.60;13.77;;;7.30;99.90;;;;;;5092292;28;20201;-67
2021/12/18 12:08:19;;;;;;;32.43;15.03;;;7.30;99.90;;;;;;5093634;28;20157;-67
2021/12/18 12:11:25;;;;;;;28.83;13.43;;;7.30;99.90;;;;;;5092020;28;20192;-67
2021/12/18 12:13:53;;;;;;;28.57;13.27;;;7.30;99.90;;;;;;5071351;28;20205;-67
2021/12/18 12:16:18;;;;;;;28.57;13.10;;;7.30;99.90;;;;;;5089446;28;20181;-67
2021/12/18 12:19:07;;;;;;;23.97;11.40;;;7.40;99.90;;;;;;5093138;28;20216;-67
2021/12/18 12:21:46;;;;;;;21.53;11.57;;;7.40;99.90;;;;;;5093409;28;20168;-67
2021/12/18 12:24:19;;;;;;;25.10;12.93;;;7.30;99.90;;;;;;5093298;28;20185;-67
2021/12/18 12:26:45;;;;;;;26.83;14.57;;;7.20;99.90;;;;;;5093579;28;20162;-67
2021/12/18 12:29:13;;;;;;;32.33;15.20;;;7.30;99.90;;;;;;5093387;28;20169;-68
2021/12/18 12:32:00;;;;;;;32.63;14.87;;;7.20;99.90;;;;;;5093280;28;20184;-67
2021/12/18 12:34:31;;;;;;;26.97;14.17;;;7.20;99.90;;;;;;5093648;28;20189;-67
2021/12/18 12:37:23;;;;;;;31.33;15.67;;;7.20;99.90;;;;;;5092052;28;20201;-68
2021/12/18 12:39:58;;;;;;;26.80;14.67;;;7.20;99.90;;;;;;5093100;28;20168;-67
2021/12/18 12:42:25;;;;;;;34.37;15.67;;;7.10;99.90;;;;;;5092991;28;20161;-67
2021/12/18 12:45:02;;;;;;;24.30;13.87;;;7.10;99.90;;;;;;5091695;28;20228;-68
2021/12/18 12:47:30;;;;;;;27.37;13.30;;;7.10;99.90;;;;;;5093228;28;20199;-67
2021/12/18 12:50:11;;;;;;;26.13;12.93;;;7.20;99.90;;;;;;5093002;28;20173;-67
2021/12/18 12:52:55;;;;;;;26.73;12.97;;;7.10;99.90;;;;;;5095301;28;20197;-67
2021/12/18 12:55:23;;;;;;;22.33;13.37;;;7.10;99.90;;;;;;5096640;28;20192;-71
2021/12/18 12:58:01;;;;;;;30.30;14.53;;;7.10;99.90;;;;;;5095288;28;20201;-68
2021/12/18 13:00:27;;;;;;;23.37;13.50;;;7.10;99.90;;;;;;5095294;28;20179;-67
2021/12/18 13:02:54;;;;;;;29.27;12.20;;;7.10;99.90;;;;;;5095344;28;20290;-68
2021/12/18 13:05:22;;;;;;;19.70;11.10;;;7.10;99.90;;;;;;5096429;28;20189;-67
2021/12/18 13:08:00;;;;;;;19.53;9.93;;;7.20;99.90;;;;;;5096387;28;20177;-67
2021/12/18 13:10:29;;;;;;;15.73;9.50;;;7.20;99.90;;;;;;5095143;28;20177;-67
2021/12/18 13:12:56;;;;;;;14.17;8.87;;;7.20;99.90;;;;;;5096858;28;20248;-67
2021/12/18 13:15:23;;;;;;;11.20;7.27;;;7.20;99.90;;;;;;5096300;28;20189;-68
2021/12/18 13:18:06;;;;;;;13.00;8.17;;;7.20;99.90;;;;;;5094945;28;20197;-67
2021/12/18 13:20:55;;;;;;;12.67;7.87;;;7.20;99.90;;;;;;5094957;28;20285;-67
2021/12/18 13:23:39;;;;;;;18.30;9.23;;;7.20;99.90;;;;;;5094862;28;20173;-67
2021/12/18 13:26:08;;;;;;;12.80;8.40;;;7.10;99.90;;;;;;5096123;28;20208;-67
2021/12/18 13:28:34;;;;;;;14.10;8.47;;;7.10;99.90;;;;;;5094737;28;20207;-67
2021/12/18 13:31:00;;;;;;;16.83;9.00;;;7.10;99.90;;;;;;5094655;28;20201;-68
2021/12/18 13:33:29;;;;;;;16.70;8.83;;;7.00;99.90;;;;;;5096238;28;20642;-68
2021/12/18 13:36:01;;;;;;;14.97;8.53;;;7.00;99.90;;;;;;5095867;28;20197;-69
2021/12/18 13:38:38;;;;;;;17.60;9.20;;;7.00;99.90;;;;;;5096662;28;20200;-68
2021/12/18 13:41:09;;;;;;;15.00;9.00;;;7.00;99.90;;;;;;5097083;28;20200;-68
2021/12/18 13:43:35;;;;;;;17.50;10.47;;;7.00;99.90;;;;;;5095211;28;20265;-68